createdAt,value
2022-08-30T00:01:14.231Z,98549.09
2022-08-30T00:03:46.159Z,98548.75
2022-08-30T00:06:15.841Z,98555.47
2022-08-30T00:08:43.953Z,98556.38
2022-08-30T00:11:14.247Z,98553.19
2022-08-30T00:13:44.539Z,98555.88
2022-08-30T00:16:12.599Z,98553.19
2022-08-30T00:18:40.581Z,98543.47
2022-08-30T00:21:09.008Z,98546.63
2022-08-30T00:23:37.106Z,98547.44
2022-08-30T00:26:05.477Z,98545.94
2022-08-30T00:28:33.960Z,98553.47
2022-08-30T00:31:02.535Z,98547.53
2022-08-30T00:33:30.256Z,98554.47
2022-08-30T00:35:57.715Z,98552.41
2022-08-30T00:38:25.086Z,98548.47
2022-08-30T00:40:53.122Z,98548.56
2022-08-30T00:43:24.369Z,98551.59
2022-08-30T00:45:55.290Z,98554.13
2022-08-30T00:48:23.145Z,98552.09
2022-08-30T00:51:02.367Z,98553.63
2022-08-30T00:53:33.168Z,98555.78
2022-08-30T00:56:01.401Z,98563.59
2022-08-30T00:58:32.910Z,98563.75
2022-08-30T01:01:01.450Z,98560.47
2022-08-30T01:03:29.874Z,98556.06
2022-08-30T01:05:57.489Z,98557.59
2022-08-30T01:08:25.196Z,98557.47
2022-08-30T01:10:53.674Z,98561.75
2022-08-30T01:13:22.661Z,98557.44
2022-08-30T01:15:50.918Z,98558.25
2022-08-30T01:18:20.011Z,98559.22
2022-08-30T01:20:52.585Z,98563.69
2022-08-30T01:23:21.045Z,98558.88
2022-08-30T01:25:50.277Z,98561.09
2022-08-30T01:28:26.113Z,98566.84
2022-08-30T01:30:54.281Z,98567.38
2022-08-30T01:33:22.687Z,98569.88
2022-08-30T01:35:56.442Z,98561.44
2022-08-30T01:38:27.707Z,98559.59
2022-08-30T01:41:12.539Z,98562.59
2022-08-30T01:43:40.262Z,98565.41
2022-08-30T01:46:08.161Z,98561.81
2022-08-30T01:48:35.537Z,98558.72
2022-08-30T01:51:03.134Z,98569.16
2022-08-30T01:53:30.748Z,98569.56
2022-08-30T01:55:58.317Z,98560.75
2022-08-30T01:58:25.734Z,98564.78
2022-08-30T02:00:53.315Z,98569.53
2022-08-30T02:03:20.751Z,98575.72
2022-08-30T02:05:48.371Z,98574.31
2022-08-30T02:08:16.097Z,98581.06
2022-08-30T02:10:43.516Z,98569.41
2022-08-30T02:13:10.863Z,98575.19
2022-08-30T02:15:41.655Z,98581.78
2022-08-30T02:18:10.788Z,98580.53
2022-08-30T02:20:39.889Z,98577.34
2022-08-30T02:23:07.305Z,98575.16
2022-08-30T02:25:34.849Z,98572.69
2022-08-30T02:28:02.298Z,98563.41
2022-08-30T02:30:29.687Z,98557.78
2022-08-30T02:32:57.273Z,98553.09
2022-08-30T02:35:24.629Z,98555.41
2022-08-30T02:37:52.473Z,98553.69
2022-08-30T02:40:22.085Z,98558.84
2022-08-30T02:42:49.833Z,98552.28
2022-08-30T02:45:17.264Z,98553.25
2022-08-30T02:47:47.213Z,98553.84
2022-08-30T02:50:15.239Z,98556.59
2022-08-30T02:52:43.097Z,98557.25
2022-08-30T02:55:16.640Z,98561.72
2022-08-30T02:57:44.583Z,98555.16
2022-08-30T03:00:15.185Z,98549.41
2022-08-30T03:02:42.567Z,98546.25
2022-08-30T03:05:12.995Z,98548.63
2022-08-30T03:07:41.172Z,98557.56
2022-08-30T03:10:09.304Z,98556.09
2022-08-30T03:12:36.714Z,98550.03
2022-08-30T03:15:05.932Z,98557.03
2022-08-30T03:17:33.320Z,98561.97
2022-08-30T03:20:02.220Z,98553.09
2022-08-30T03:22:30.002Z,98553.84
2022-08-30T03:25:01.621Z,98548.16
2022-08-30T03:27:29.681Z,98543.59
2022-08-30T03:29:57.176Z,98537.13
2022-08-30T03:32:24.639Z,98530.78
2022-08-30T03:34:51.952Z,98539.72
2022-08-30T03:37:23.297Z,98538.59
2022-08-30T03:39:53.304Z,98531.75
2022-08-30T03:42:20.642Z,98537.13
2022-08-30T03:44:50.508Z,98540.56
2022-08-30T03:47:17.826Z,98538.03
2022-08-30T03:49:45.242Z,98540.25
2022-08-30T03:52:12.582Z,98546.88
2022-08-30T03:54:40.391Z,98540.97
2022-08-30T03:57:07.723Z,98539.00
2022-08-30T03:59:38.905Z,98546.59
2022-08-30T04:02:06.924Z,98547.53
2022-08-30T04:04:34.289Z,98546.47
2022-08-30T04:07:01.683Z,98546.78
2022-08-30T04:09:28.965Z,98546.78
2022-08-30T04:11:56.321Z,98541.91
2022-08-30T04:14:23.738Z,98549.88
2022-08-30T04:16:51.326Z,98553.06
2022-08-30T04:19:18.783Z,98548.16
2022-08-30T04:21:46.150Z,98552.78
2022-08-30T04:24:13.856Z,98546.34
2022-08-30T04:26:41.238Z,98548.59
2022-08-30T04:29:11.588Z,98539.38
2022-08-30T04:31:39.066Z,98532.94
2022-08-30T04:34:06.422Z,98547.34
2022-08-30T04:36:33.739Z,98539.66
2022-08-30T04:39:01.108Z,98545.50
2022-08-30T04:41:28.454Z,98543.97
2022-08-30T04:43:55.881Z,98551.13
2022-08-30T04:46:23.206Z,98550.28
2022-08-30T04:48:50.616Z,98555.03
2022-08-30T04:51:19.340Z,98559.91
2022-08-30T04:53:46.877Z,98555.94
2022-08-30T04:56:17.672Z,98551.72
2022-08-30T04:58:46.986Z,98557.47
2022-08-30T05:01:19.884Z,98553.81
2022-08-30T05:03:48.682Z,98558.88
2022-08-30T05:06:16.512Z,98567.28
2022-08-30T05:08:46.006Z,98570.09
2022-08-30T05:11:15.453Z,98571.94
2022-08-30T05:13:43.754Z,98577.06
2022-08-30T05:16:13.297Z,98575.75
2022-08-30T05:18:40.648Z,98577.59
2022-08-30T05:21:11.562Z,98576.97
2022-08-30T05:23:40.225Z,98583.81
2022-08-30T05:26:32.342Z,98586.34
2022-08-30T05:29:00.354Z,98584.69
2022-08-30T05:31:35.752Z,98579.59
2022-08-30T05:34:04.221Z,98578.75
2022-08-30T05:36:35.415Z,98575.81
2022-08-30T05:39:02.421Z,98584.66
2022-08-30T05:41:33.132Z,98592.00
2022-08-30T05:44:03.756Z,98584.75
2022-08-30T05:49:07.174Z,98591.31
2022-08-30T05:51:42.867Z,98585.94
2022-08-30T05:54:12.534Z,98591.09
2022-08-30T05:56:42.221Z,98571.50
2022-08-30T05:59:09.933Z,98574.75
2022-08-30T06:01:44.426Z,98565.03
2022-08-30T06:04:13.908Z,98563.69
2022-08-30T06:06:43.269Z,98559.50
2022-08-30T06:09:13.386Z,98566.34
2022-08-30T06:11:40.837Z,98575.97
2022-08-30T06:14:08.391Z,98576.38
2022-08-30T06:16:38.964Z,98567.19
2022-08-30T06:19:08.549Z,98565.06
2022-08-30T06:21:38.002Z,98562.97
2022-08-30T06:24:08.688Z,98564.50
2022-08-30T06:26:45.144Z,98576.31
2022-08-30T06:29:17.561Z,98573.41
2022-08-30T06:31:45.174Z,98574.66
2022-08-30T06:34:12.249Z,98567.53
2022-08-30T06:36:39.828Z,98572.97
2022-08-30T06:39:07.682Z,98571.03
2022-08-30T06:41:37.305Z,98567.19
2022-08-30T06:44:12.076Z,98567.56
2022-08-30T06:46:39.424Z,98560.53
2022-08-30T06:49:07.767Z,98564.94
2022-08-30T06:51:39.982Z,98558.81
2022-08-30T06:54:10.873Z,98557.13
2022-08-30T06:56:42.457Z,98550.16
2022-08-30T06:59:16.428Z,98546.41
2022-08-30T07:01:43.750Z,98554.47
2022-08-30T07:04:10.749Z,98545.16
2022-08-30T07:06:37.657Z,98545.75
2022-08-30T07:09:04.670Z,98542.22
2022-08-30T07:11:36.640Z,98543.44
2022-08-30T07:14:04.899Z,98555.06
2022-08-30T07:16:32.787Z,98543.41
2022-08-30T07:19:00.439Z,98541.28
2022-08-30T07:21:34.841Z,98541.31
2022-08-30T07:24:03.356Z,98540.41
2022-08-30T07:26:37.938Z,98542.63
2022-08-30T07:29:06.109Z,98538.41
2022-08-30T07:31:34.703Z,98543.03
2022-08-30T07:34:05.470Z,98550.13
2022-08-30T07:36:33.297Z,98544.66
2022-08-30T07:39:00.238Z,98541.69
2022-08-30T07:41:35.662Z,98553.22
2022-08-30T07:44:03.211Z,98556.19
2022-08-30T07:46:30.401Z,98554.41
2022-08-30T07:49:00.234Z,98550.91
2022-08-30T07:51:29.451Z,98556.63
2022-08-30T07:53:57.286Z,98553.06
2022-08-30T07:56:25.563Z,98558.94
2022-08-30T07:58:53.360Z,98553.97
2022-08-30T08:01:21.828Z,98553.31
2022-08-30T08:03:50.339Z,98545.47
2022-08-30T08:06:20.312Z,98552.88
2022-08-30T08:08:47.389Z,98549.88
2022-08-30T08:11:27.576Z,98553.03
2022-08-30T08:13:57.621Z,98547.28
2022-08-30T08:16:28.959Z,98551.16
2022-08-30T08:18:56.938Z,98544.03
2022-08-30T08:21:25.485Z,98552.06
2022-08-30T08:23:52.669Z,98543.75
2022-08-30T08:26:21.034Z,98548.22
2022-08-30T08:28:48.203Z,98547.72
2022-08-30T08:31:31.387Z,98544.34
2022-08-30T08:34:02.964Z,98541.72
2022-08-30T08:36:31.316Z,98541.94
2022-08-30T08:38:59.373Z,98533.69
2022-08-30T08:41:41.939Z,98538.63
2022-08-30T08:44:35.515Z,98544.69
2022-08-30T08:47:11.629Z,98536.31
2022-08-30T08:49:45.867Z,98535.66
2022-08-30T08:53:10.816Z,98543.91
2022-08-30T08:55:49.800Z,98535.16
2022-08-30T08:58:43.836Z,98530.97
2022-08-30T09:01:15.363Z,98522.78
2022-08-30T09:03:43.200Z,98523.06
2022-08-30T09:06:22.654Z,98525.56
2022-08-30T09:08:50.584Z,98513.81
2022-08-30T09:11:26.385Z,98518.47
2022-08-30T09:13:54.693Z,98510.19
2022-08-30T09:16:52.764Z,98512.47
2022-08-30T09:19:52.720Z,98514.47
2022-08-30T09:22:34.748Z,98520.31
2022-08-30T09:25:32.372Z,98515.50
2022-08-30T09:28:12.932Z,98510.78
2022-08-30T09:30:40.649Z,98512.75
2022-08-30T09:33:20.048Z,98512.50
2022-08-30T09:35:54.457Z,98500.44
2022-08-30T09:38:35.769Z,98508.91
2022-08-30T09:41:50.070Z,98507.31
2022-08-30T09:44:27.937Z,98505.75
2022-08-30T09:46:57.815Z,98500.16
2022-08-30T09:49:30.248Z,98504.56
2022-08-30T09:52:24.544Z,98490.16
2022-08-30T09:55:33.307Z,98489.03
2022-08-30T09:58:08.236Z,98487.56
2022-08-30T10:00:45.386Z,98479.13
2022-08-30T10:03:36.314Z,98488.44
2022-08-30T10:06:33.811Z,98483.75
2022-08-30T10:09:24.268Z,98467.09
2022-08-30T10:12:38.696Z,98482.91
2022-08-30T10:15:26.681Z,98475.50
2022-08-30T10:18:24.149Z,98476.38
2022-08-30T10:20:58.025Z,98462.31
2022-08-30T10:23:57.080Z,98461.34
2022-08-30T10:26:30.520Z,98458.28
2022-08-30T10:29:06.823Z,98462.09
2022-08-30T10:31:46.264Z,98454.88
2022-08-30T10:34:31.364Z,98451.25
2022-08-30T10:37:16.571Z,98447.63
2022-08-30T10:39:48.436Z,98455.66
2022-08-30T10:42:24.608Z,98445.50
2022-08-30T10:44:57.438Z,98438.03
2022-08-30T10:47:40.704Z,98439.00
2022-08-30T10:50:29.689Z,98447.84
2022-08-30T10:53:24.642Z,98442.72
2022-08-30T10:56:10.590Z,98438.66
2022-08-30T10:58:41.820Z,98436.44
2022-08-30T11:01:32.397Z,98431.53
2022-08-30T11:04:30.583Z,98426.88
2022-08-30T11:07:10.848Z,98435.06
2022-08-30T11:10:16.266Z,98446.41
2022-08-30T11:13:05.934Z,98441.19
2022-08-30T11:15:37.818Z,98428.16
2022-08-30T11:18:12.183Z,98428.25
2022-08-30T11:20:47.254Z,98426.91
2022-08-30T11:23:33.300Z,98420.75
2022-08-30T11:26:06.400Z,98414.13
2022-08-30T11:28:37.784Z,98423.63
2022-08-30T11:31:06.722Z,98418.72
2022-08-30T11:33:50.460Z,98407.31
2022-08-30T11:36:37.529Z,98415.66
2022-08-30T11:39:10.159Z,98417.06
2022-08-30T11:41:42.070Z,98418.88
2022-08-30T11:44:22.847Z,98422.25
2022-08-30T11:46:55.051Z,98419.72
2022-08-30T11:49:23.422Z,98420.03
2022-08-30T11:52:27.445Z,98415.41
2022-08-30T11:55:01.733Z,98422.81
2022-08-30T11:58:00.323Z,98420.28
2022-08-30T12:00:30.253Z,98413.81
2022-08-30T12:03:07.069Z,98408.50
2022-08-30T12:05:40.793Z,98398.25
2022-08-30T12:08:09.890Z,98411.56
2022-08-30T12:10:43.521Z,98404.97
2022-08-30T12:13:32.457Z,98414.63
2022-08-30T12:16:23.294Z,98412.22
2022-08-30T12:19:00.880Z,98415.41
2022-08-30T12:21:41.048Z,98402.50
2022-08-30T12:24:19.020Z,98410.44
2022-08-30T12:26:48.391Z,98406.19
2022-08-30T12:29:21.033Z,98408.19
2022-08-30T12:31:54.213Z,98407.69
2022-08-30T12:34:36.761Z,98400.06
2022-08-30T12:37:23.261Z,98398.91
2022-08-30T12:40:11.272Z,98405.44
2022-08-30T12:42:48.822Z,98407.00
2022-08-30T12:45:21.019Z,98404.22
2022-08-30T12:48:00.548Z,98407.00
2022-08-30T12:50:37.870Z,98405.00
2022-08-30T12:53:13.957Z,98406.38
2022-08-30T12:55:59.964Z,98402.69
2022-08-30T12:58:43.417Z,98396.53
2022-08-30T13:01:31.301Z,98400.44
2022-08-30T13:04:20.272Z,98389.72
2022-08-30T13:06:55.688Z,98385.69
2022-08-30T13:09:40.824Z,98389.00
2022-08-30T13:12:22.574Z,98379.81
2022-08-30T13:14:52.417Z,98381.19
2022-08-30T13:17:21.410Z,98390.59
2022-08-30T13:20:07.734Z,98384.31
2022-08-30T13:22:37.534Z,98381.91
2022-08-30T13:25:06.531Z,98376.72
2022-08-30T13:27:36.717Z,98375.88
2022-08-30T13:30:16.224Z,98367.97
2022-08-30T13:32:45.019Z,98361.19
2022-08-30T13:35:13.007Z,98360.34
2022-08-30T13:37:49.465Z,98359.06
2022-08-30T13:40:19.901Z,98365.66
2022-08-30T13:42:47.631Z,98355.16
2022-08-30T13:48:03.964Z,98356.56
2022-08-30T13:50:31.619Z,98362.63
2022-08-30T13:52:59.052Z,98357.81
2022-08-30T13:55:26.407Z,98348.72
2022-08-30T13:57:56.653Z,98338.78
2022-08-30T14:00:26.133Z,98342.13
2022-08-30T14:02:56.136Z,98344.34
2022-08-30T14:05:48.155Z,98345.53
2022-08-30T14:11:09.202Z,98337.13
2022-08-30T14:13:36.950Z,98335.00
2022-08-30T14:18:55.557Z,98328.09
2022-08-30T14:21:24.771Z,98317.53
2022-08-30T14:23:53.530Z,98326.81
2022-08-30T14:26:24.416Z,98325.00
2022-08-30T14:28:53.563Z,98316.25
2022-08-30T14:31:21.043Z,98325.94
2022-08-30T14:33:48.762Z,98322.78
2022-08-30T14:36:16.980Z,98321.47
2022-08-30T14:38:44.849Z,98313.56
2022-08-30T14:41:12.261Z,98316.63
2022-08-30T14:43:40.442Z,98314.97
2022-08-30T14:46:09.014Z,98314.75
2022-08-30T14:48:38.464Z,98312.84
2022-08-30T14:51:20.815Z,98312.72
2022-08-30T14:53:50.771Z,98317.78
2022-08-30T14:56:19.949Z,98314.84
2022-08-30T14:58:54.666Z,98302.56
2022-08-30T15:01:22.589Z,98307.28
2022-08-30T15:03:51.097Z,98306.09
2022-08-30T15:06:19.017Z,98305.50
2022-08-30T15:08:48.426Z,98302.97
2022-08-30T15:11:18.318Z,98305.53
2022-08-30T15:13:46.232Z,98300.13
2022-08-30T15:16:15.526Z,98302.84
2022-08-30T15:18:43.077Z,98295.19
2022-08-30T15:21:11.210Z,98306.47
2022-08-30T15:23:39.306Z,98292.13
2022-08-30T15:26:08.110Z,98295.78
2022-08-30T15:28:36.940Z,98282.91
2022-08-30T15:31:08.788Z,98287.44
2022-08-30T15:33:37.661Z,98284.34
2022-08-30T15:36:06.675Z,98287.06
2022-08-30T15:38:35.090Z,98280.81
2022-08-30T15:41:06.746Z,98280.91
2022-08-30T15:43:34.820Z,98273.34
2022-08-30T15:46:18.735Z,98277.38
2022-08-30T15:48:47.045Z,98278.56
2022-08-30T15:51:16.737Z,98278.91
2022-08-30T15:53:45.641Z,98271.56
2022-08-30T15:56:13.625Z,98277.84
2022-08-30T15:58:41.733Z,98268.88
2022-08-30T16:01:09.762Z,98277.13
2022-08-30T16:03:40.335Z,98271.81
2022-08-30T16:06:19.537Z,98276.09
2022-08-30T16:08:47.188Z,98272.66
2022-08-30T16:11:16.876Z,98277.38
2022-08-30T16:13:49.557Z,98271.69
2022-08-30T16:16:19.608Z,98270.16
2022-08-30T16:18:54.123Z,98273.69
2022-08-30T16:21:24.753Z,98269.38
2022-08-30T16:23:53.923Z,98266.66
2022-08-30T16:26:21.925Z,98263.59
2022-08-30T16:28:49.689Z,98262.69
2022-08-30T16:31:17.852Z,98262.06
2022-08-30T16:33:45.780Z,98255.31
2022-08-30T16:36:13.995Z,98257.66
2022-08-30T16:38:41.725Z,98251.38
2022-08-30T16:41:11.660Z,98253.75
2022-08-30T16:43:39.756Z,98254.94
2022-08-30T16:46:11.247Z,98252.53
2022-08-30T16:48:39.725Z,98253.50
2022-08-30T16:51:14.754Z,98252.16
2022-08-30T16:53:42.468Z,98253.66
2022-08-30T16:56:15.959Z,98250.66
2022-08-30T16:58:44.721Z,98248.41
2022-08-30T17:01:13.363Z,98247.28
2022-08-30T17:03:41.270Z,98245.66
2022-08-30T17:06:09.002Z,98246.78
2022-08-30T17:08:36.406Z,98253.13
2022-08-30T17:11:04.346Z,98254.03
2022-08-30T17:13:33.232Z,98252.22
2022-08-30T17:16:00.674Z,98260.84
2022-08-30T17:18:29.321Z,98261.97
2022-08-30T17:20:56.778Z,98255.13
2022-08-30T17:23:24.219Z,98262.50
2022-08-30T17:25:51.649Z,98270.22
2022-08-30T17:28:21.955Z,98267.81
2022-08-30T17:30:49.742Z,98275.16
2022-08-30T17:33:18.752Z,98273.16
2022-08-30T17:35:46.241Z,98285.13
2022-08-30T17:38:14.240Z,98289.09
2022-08-30T17:40:41.817Z,98293.31
2022-08-30T17:43:09.639Z,98305.50
2022-08-30T17:45:37.478Z,98301.38
2022-08-30T17:48:07.028Z,98302.47
2022-08-30T17:50:36.049Z,98309.31
2022-08-30T17:53:03.478Z,98305.88
2022-08-30T17:55:30.977Z,98311.53
2022-08-30T17:58:00.554Z,98314.47
2022-08-30T18:00:28.281Z,98317.38
2022-08-30T18:02:57.656Z,98314.31
2022-08-30T18:05:25.404Z,98316.03
2022-08-30T18:07:53.122Z,98325.25
2022-08-30T18:10:28.586Z,98329.41
2022-08-30T18:13:07.832Z,98332.53
2022-08-30T18:15:36.156Z,98330.44
2022-08-30T18:18:06.458Z,98331.06
2022-08-30T18:20:33.829Z,98336.47
2022-08-30T18:23:02.115Z,98331.09
2022-08-30T18:25:29.529Z,98333.16
2022-08-30T18:27:57.262Z,98337.94
2022-08-30T18:30:33.175Z,98336.66
2022-08-30T18:33:01.526Z,98334.81
2022-08-30T18:35:28.863Z,98332.94
2022-08-30T18:37:56.277Z,98329.16
2022-08-30T18:40:23.635Z,98332.50
2022-08-30T18:42:51.691Z,98336.81
2022-08-30T18:45:19.043Z,98338.88
2022-08-30T18:47:46.413Z,98345.06
2022-08-30T18:50:13.962Z,98345.09
2022-08-30T18:52:41.400Z,98347.56
2022-08-30T18:55:12.602Z,98347.78
2022-08-30T18:57:40.041Z,98346.72
2022-08-30T19:00:09.616Z,98356.84
2022-08-30T19:02:37.688Z,98361.41
2022-08-30T19:05:05.796Z,98358.53
2022-08-30T19:07:36.875Z,98358.91
2022-08-30T19:10:06.883Z,98353.94
2022-08-30T19:12:34.318Z,98368.97
2022-08-30T19:15:01.922Z,98358.19
2022-08-30T19:17:39.740Z,98364.13
2022-08-30T19:20:09.851Z,98372.03
2022-08-30T19:22:50.424Z,98368.59
2022-08-30T19:25:25.520Z,98369.59
2022-08-30T19:27:52.900Z,98375.97
2022-08-30T19:30:29.318Z,98371.06
2022-08-30T19:32:57.393Z,98374.59
2022-08-30T19:35:25.290Z,98378.69
2022-08-30T19:37:52.724Z,98378.09
2022-08-30T19:40:20.967Z,98383.84
2022-08-30T19:42:49.117Z,98382.63
2022-08-30T19:45:21.508Z,98381.59
2022-08-30T19:47:49.463Z,98379.56
2022-08-30T19:50:17.712Z,98381.16
2022-08-30T19:52:52.755Z,98383.06
2022-08-30T19:55:24.238Z,98378.56
2022-08-30T19:57:56.247Z,98384.41
2022-08-30T20:00:23.956Z,98382.59
2022-08-30T20:02:52.105Z,98376.94
2022-08-30T20:05:21.423Z,98377.44
2022-08-30T20:07:51.145Z,98378.88
2022-08-30T20:10:20.570Z,98385.69
2022-08-30T20:12:50.310Z,98384.72
2022-08-30T20:15:18.577Z,98379.34
2022-08-30T20:18:03.363Z,98379.41
2022-08-30T20:20:36.665Z,98375.97
2022-08-30T20:23:05.273Z,98379.28
2022-08-30T20:25:33.276Z,98381.19
2022-08-30T20:28:01.312Z,98389.13
2022-08-30T20:30:28.646Z,98392.19
2022-08-30T20:32:57.225Z,98378.88
2022-08-30T20:35:24.617Z,98379.38
2022-08-30T20:37:51.997Z,98384.19
2022-08-30T20:40:20.617Z,98383.03
2022-08-30T20:42:48.456Z,98385.63
2022-08-30T20:45:17.330Z,98385.03
2022-08-30T20:47:44.951Z,98374.78
2022-08-30T20:50:16.728Z,98378.22
2022-08-30T20:52:44.790Z,98373.88
2022-08-30T20:55:13.216Z,98372.16
2022-08-30T20:57:40.686Z,98370.94
2022-08-30T21:00:13.692Z,98372.63
2022-08-30T21:02:46.686Z,98371.72
2022-08-30T21:05:17.055Z,98371.63
2022-08-30T21:07:45.785Z,98376.03
2022-08-30T21:10:14.038Z,98371.75
2022-08-30T21:12:42.768Z,98372.97
2022-08-30T21:15:26.807Z,98373.88
2022-08-30T21:17:58.276Z,98372.94
2022-08-30T21:20:25.743Z,98375.44
2022-08-30T21:22:53.310Z,98368.66
2022-08-30T21:25:20.607Z,98372.75
2022-08-30T21:27:47.960Z,98374.44
2022-08-30T21:30:15.878Z,98369.50
2022-08-30T21:32:43.313Z,98373.31
2022-08-30T21:35:29.462Z,98375.53
2022-08-30T21:37:56.846Z,98376.91
2022-08-30T21:40:24.325Z,98374.97
2022-08-30T21:42:52.222Z,98378.56
2022-08-30T21:45:19.726Z,98381.66
2022-08-30T21:47:47.298Z,98377.63
2022-08-30T21:50:14.725Z,98373.94
2022-08-30T21:52:42.036Z,98383.59
2022-08-30T21:55:09.619Z,98379.94
2022-08-30T21:57:36.980Z,98384.28
2022-08-30T22:00:08.548Z,98385.03
2022-08-30T22:02:35.878Z,98386.59
2022-08-30T22:05:03.384Z,98388.94
2022-08-30T22:07:30.710Z,98393.41
2022-08-30T22:09:59.150Z,98395.66
2022-08-30T22:12:26.939Z,98394.94
2022-08-30T22:14:54.581Z,98401.63
2022-08-30T22:17:21.916Z,98395.78
2022-08-30T22:19:49.331Z,98397.56
2022-08-30T22:22:16.656Z,98398.59
2022-08-30T22:24:43.988Z,98392.84
2022-08-30T22:27:11.441Z,98395.91
2022-08-30T22:29:39.318Z,98396.66
2022-08-30T22:32:06.917Z,98394.66
2022-08-30T22:34:34.291Z,98402.56
2022-08-30T22:37:01.710Z,98402.09
2022-08-30T22:39:29.140Z,98399.41
2022-08-30T22:41:56.557Z,98409.97
2022-08-30T22:44:24.028Z,98410.63
2022-08-30T22:46:51.544Z,98413.59
2022-08-30T22:49:18.908Z,98418.50
2022-08-30T22:51:46.287Z,98408.63
2022-08-30T22:54:13.657Z,98411.97
2022-08-30T22:56:41.538Z,98409.22
2022-08-30T22:59:08.970Z,98416.00
2022-08-30T23:01:39.134Z,98413.13
2022-08-30T23:04:08.092Z,98427.75
2022-08-30T23:06:35.795Z,98421.75
2022-08-30T23:09:04.139Z,98421.84
2022-08-30T23:11:33.064Z,98425.19
2022-08-30T23:14:02.147Z,98422.38
2022-08-30T23:16:29.822Z,98426.56
2022-08-30T23:18:57.229Z,98427.16
2022-08-30T23:21:27.216Z,98423.31
2022-08-30T23:24:13.899Z,98422.69
2022-08-30T23:27:00.829Z,98426.69
2022-08-30T23:29:49.414Z,98417.03
2022-08-30T23:32:35.400Z,98425.09
2022-08-30T23:35:25.381Z,98416.50
2022-08-30T23:38:17.293Z,98418.53
2022-08-30T23:41:03.391Z,98419.41
2022-08-30T23:43:49.261Z,98409.66
2022-08-30T23:46:35.410Z,98407.78
2022-08-30T23:49:21.787Z,98411.34
2022-08-30T23:52:07.555Z,98408.34
2022-08-30T23:54:54.948Z,98406.53
2022-08-30T23:57:44.169Z,98408.72
